createdAt,value
2022-10-06T04:00:49.634Z,80.69
2022-10-06T04:05:01.355Z,80.20
2022-10-06T04:09:15.951Z,79.76
2022-10-06T04:13:28.313Z,80.55
2022-10-06T04:17:39.885Z,80.29
2022-10-06T04:21:51.486Z,80.12
2022-10-06T04:26:10.438Z,80.46
2022-10-06T04:30:22.318Z,80.70
2022-10-06T04:34:34.357Z,80.94
2022-10-06T04:38:45.917Z,79.92
2022-10-06T04:42:57.695Z,80.28
2022-10-06T04:47:09.324Z,80.31
2022-10-06T04:51:22.638Z,80.11
2022-10-06T04:55:34.320Z,80.63
2022-10-06T05:00:08.832Z,80.85
2022-10-06T05:04:24.063Z,81.25
2022-10-06T05:08:36.066Z,81.13
2022-10-06T05:12:47.714Z,81.79
2022-10-06T05:16:59.764Z,81.70
2022-10-06T05:21:20.564Z,82.29
2022-10-06T05:25:33.208Z,82.58
2022-10-06T05:29:44.832Z,82.59
2022-10-06T05:33:58.353Z,82.88
2022-10-06T05:38:11.678Z,82.56
2022-10-06T05:42:28.740Z,83.78
2022-10-06T05:46:41.281Z,84.06
2022-10-06T05:51:08.141Z,83.57
2022-10-06T05:55:21.961Z,83.71
2022-10-06T05:59:33.789Z,84.33
2022-10-06T06:03:49.746Z,83.91
2022-10-06T06:08:01.690Z,84.46
2022-10-06T06:12:14.216Z,84.57
2022-10-06T06:16:35.837Z,84.48
2022-10-06T06:20:58.042Z,84.87
2022-10-06T06:25:10.282Z,84.39
2022-10-06T06:29:23.157Z,84.71
2022-10-06T06:33:37.689Z,84.16
2022-10-06T06:37:50.137Z,84.10
2022-10-06T06:42:02.106Z,83.58
2022-10-06T06:46:25.265Z,82.95
2022-10-06T06:50:44.062Z,83.24
2022-10-06T06:54:57.065Z,82.71
2022-10-06T06:59:11.793Z,82.54
2022-10-06T07:03:52.595Z,82.46
2022-10-06T07:07:58.027Z,80.09
2022-10-06T07:12:11.413Z,75.56
2022-10-06T07:16:45.512Z,73.04
2022-10-06T07:21:16.059Z,72.04
2022-10-06T07:25:27.822Z,70.61
2022-10-06T07:29:42.197Z,70.53
2022-10-06T07:33:53.910Z,68.25
2022-10-06T07:38:07.935Z,68.89
2022-10-06T07:42:24.468Z,67.74
2022-10-06T07:46:35.989Z,65.74
2022-10-06T07:50:52.680Z,66.80
2022-10-06T07:55:17.319Z,66.48
2022-10-06T07:59:52.753Z,66.96
2022-10-06T08:04:06.655Z,67.33
2022-10-06T08:08:18.695Z,67.19
2022-10-06T08:12:33.061Z,66.97
2022-10-06T08:16:44.789Z,67.17
2022-10-06T08:20:56.350Z,66.22
2022-10-06T08:25:10.172Z,64.64
2022-10-06T08:29:22.175Z,64.45
2022-10-06T08:33:35.884Z,61.92
2022-10-06T08:37:48.538Z,63.00
2022-10-06T08:42:00.051Z,62.02
2022-10-06T08:46:14.530Z,60.80
2022-10-06T08:50:29.161Z,61.10
2022-10-06T08:54:58.780Z,60.07
2022-10-06T08:59:10.582Z,61.07
2022-10-06T09:03:28.457Z,60.78
2022-10-06T09:07:58.180Z,60.13
2022-10-06T09:12:30.912Z,59.26
2022-10-06T09:16:48.358Z,56.82
2022-10-06T09:21:23.558Z,54.58
2022-10-06T09:25:41.028Z,53.47
2022-10-06T09:29:53.234Z,53.98
2022-10-06T09:34:37.465Z,54.31
2022-10-06T09:38:55.157Z,53.70
2022-10-06T09:43:38.775Z,55.70
2022-10-06T09:47:50.394Z,55.18
2022-10-06T09:52:18.341Z,53.48
2022-10-06T09:56:31.881Z,54.86
2022-10-06T10:00:56.874Z,54.07
2022-10-06T10:05:21.264Z,54.11
2022-10-06T10:09:32.793Z,54.32
2022-10-06T10:13:44.350Z,54.74
2022-10-06T10:18:12.792Z,54.88
2022-10-06T10:22:38.030Z,53.11
2022-10-06T10:27:14.473Z,53.10
2022-10-06T10:31:50.624Z,53.90
2022-10-06T10:36:05.278Z,53.78
2022-10-06T10:40:32.772Z,53.50
2022-10-06T10:44:55.263Z,54.10
2022-10-06T10:49:18.209Z,54.03
2022-10-06T10:53:47.146Z,52.92
2022-10-06T10:58:05.922Z,52.81
2022-10-06T11:02:21.051Z,52.37
2022-10-06T11:06:53.782Z,51.11
2022-10-06T11:11:20.143Z,52.11
2022-10-06T11:16:05.108Z,51.28
2022-10-06T11:20:38.990Z,49.04
2022-10-06T11:29:34.914Z,48.61
2022-10-06T11:33:54.881Z,48.01
2022-10-06T11:38:16.126Z,44.97
2022-10-06T11:42:53.861Z,47.37
2022-10-06T11:47:14.769Z,47.00
2022-10-06T11:51:28.284Z,46.70
2022-10-06T11:55:39.756Z,46.49
2022-10-06T11:59:53.757Z,46.12
2022-10-06T12:04:14.326Z,46.50
2022-10-06T12:08:40.132Z,44.46
2022-10-06T12:13:13.923Z,43.63
2022-10-06T12:17:32.433Z,43.05
2022-10-06T12:22:12.459Z,46.33
2022-10-06T12:26:31.748Z,45.19
2022-10-06T12:31:07.104Z,45.65
2022-10-06T12:35:32.459Z,44.15
2022-10-06T12:39:44.204Z,44.60
2022-10-06T12:43:57.258Z,43.75
2022-10-06T12:48:18.290Z,45.90
2022-10-06T12:52:53.712Z,46.37
2022-10-06T12:57:28.379Z,45.55
2022-10-06T13:01:40.150Z,45.96
2022-10-06T13:05:55.798Z,45.34
2022-10-06T13:10:13.644Z,46.58
2022-10-06T13:14:25.154Z,45.29
2022-10-06T13:18:36.732Z,44.03
2022-10-06T13:23:07.526Z,44.99
2022-10-06T13:27:21.841Z,42.19
2022-10-06T13:31:36.557Z,43.22
2022-10-06T13:35:54.257Z,43.73
2022-10-06T13:40:21.951Z,43.95
2022-10-06T13:44:59.107Z,43.88
2022-10-06T13:49:49.824Z,43.92
2022-10-06T13:54:06.733Z,42.87
2022-10-06T13:58:19.446Z,42.87
2022-10-06T14:02:35.045Z,42.49
2022-10-06T14:06:55.990Z,42.18
2022-10-06T14:11:08.726Z,41.75
2022-10-06T14:15:24.081Z,41.75
2022-10-06T14:19:38.772Z,42.66
2022-10-06T14:23:54.781Z,42.53
2022-10-06T14:28:06.836Z,42.30
2022-10-06T14:32:18.741Z,41.93
2022-10-06T14:36:32.985Z,40.46
2022-10-06T14:40:44.550Z,41.21
2022-10-06T14:44:56.412Z,41.82
2022-10-06T14:49:09.903Z,42.01
2022-10-06T14:53:21.405Z,42.66
2022-10-06T14:57:35.540Z,42.03
2022-10-06T15:01:49.359Z,43.18
2022-10-06T15:06:21.930Z,44.25
2022-10-06T15:10:33.546Z,43.86
2022-10-06T15:14:45.116Z,44.12
2022-10-06T15:18:59.048Z,43.75
2022-10-06T15:23:10.994Z,45.15
2022-10-06T15:31:53.126Z,45.18
2022-10-06T15:36:33.398Z,44.53
2022-10-06T15:40:44.890Z,45.14
2022-10-06T15:44:56.373Z,45.85
2022-10-06T15:49:12.983Z,46.08
2022-10-06T15:53:24.456Z,46.33
2022-10-06T15:57:36.143Z,46.09
2022-10-06T16:01:48.069Z,45.63
2022-10-06T16:06:00.628Z,46.22
2022-10-06T16:10:13.431Z,46.88
2022-10-06T16:14:26.262Z,48.03
2022-10-06T16:18:37.768Z,48.95
2022-10-06T16:22:49.439Z,49.42
2022-10-06T16:27:01.183Z,50.90
2022-10-06T16:31:12.687Z,51.59
2022-10-06T16:35:24.214Z,53.61
2022-10-06T16:39:35.691Z,57.31
2022-10-06T16:43:49.335Z,60.26
2022-10-06T16:48:00.851Z,62.00
2022-10-06T16:52:12.346Z,64.20
2022-10-06T16:56:26.657Z,65.15
2022-10-06T17:00:38.335Z,65.61
2022-10-06T17:04:49.901Z,66.92
2022-10-06T17:09:01.650Z,67.47
2022-10-06T17:13:13.124Z,69.34
2022-10-06T17:17:24.615Z,69.82
2022-10-06T17:21:57.424Z,70.82
2022-10-06T17:26:23.190Z,71.58
2022-10-06T17:30:34.648Z,71.94
2022-10-06T17:34:46.125Z,72.38
2022-10-06T17:39:02.758Z,73.01
2022-10-06T17:43:14.253Z,72.85
2022-10-06T17:47:26.476Z,73.19
2022-10-06T17:51:40.706Z,73.94
2022-10-06T17:55:54.577Z,74.80
2022-10-06T18:00:07.404Z,76.02
2022-10-06T18:04:23.718Z,76.26
2022-10-06T18:08:35.213Z,76.32
2022-10-06T18:12:46.687Z,76.96
2022-10-06T18:17:00.763Z,77.30
2022-10-06T18:21:13.473Z,77.47
2022-10-06T18:25:26.970Z,77.04
2022-10-06T18:29:38.770Z,76.80
2022-10-06T18:38:26.176Z,78.67
2022-10-06T18:42:38.982Z,79.39
2022-10-06T18:47:09.512Z,78.65
2022-10-06T18:51:27.195Z,78.95
2022-10-06T18:55:38.665Z,78.91
2022-10-06T18:59:50.138Z,78.89
2022-10-06T19:04:03.559Z,79.14
2022-10-06T19:08:15.030Z,79.48
2022-10-06T19:12:26.576Z,79.82
2022-10-06T19:16:38.075Z,79.74
2022-10-06T19:20:52.539Z,79.97
2022-10-06T19:25:04.229Z,80.23
2022-10-06T19:29:16.570Z,79.58
2022-10-06T19:33:29.728Z,79.58
2022-10-06T19:37:41.673Z,80.25
2022-10-06T19:42:12.495Z,80.59
2022-10-06T19:46:24.058Z,80.07
2022-10-06T19:50:35.866Z,80.92
2022-10-06T19:54:47.366Z,80.38
2022-10-06T19:59:01.288Z,80.01
2022-10-06T20:03:12.764Z,79.93
2022-10-06T20:07:27.811Z,81.01
2022-10-06T20:11:43.598Z,80.88
2022-10-06T20:15:55.075Z,80.89
2022-10-06T20:20:06.938Z,80.92
2022-10-06T20:24:22.568Z,80.75
2022-10-06T20:28:34.516Z,81.01
2022-10-06T20:32:46.072Z,81.48
2022-10-06T20:37:02.768Z,81.78
2022-10-06T20:41:17.835Z,81.51
2022-10-06T20:45:30.033Z,81.14
2022-10-06T20:49:44.520Z,80.54
2022-10-06T20:53:56.063Z,81.17
2022-10-06T20:58:08.030Z,80.85
2022-10-06T21:02:19.755Z,80.84
2022-10-06T21:06:31.892Z,81.18
2022-10-06T21:10:43.596Z,81.01
2022-10-06T21:14:57.036Z,81.28
2022-10-06T21:19:16.807Z,81.57
2022-10-06T21:23:29.635Z,80.85
2022-10-06T21:27:41.654Z,81.08
